createdAt,value
2018-05-02T00:00:30.113Z,2.40
2018-05-02T00:02:32.699Z,2.50
2018-05-02T00:04:35.294Z,2.97
2018-05-02T00:06:37.865Z,2.57
2018-05-02T00:08:40.463Z,2.63
2018-05-02T00:10:43.855Z,2.40
2018-05-02T00:12:47.200Z,2.40
2018-05-02T00:14:49.859Z,2.37
2018-05-02T00:16:52.460Z,2.67
2018-05-02T00:18:55.056Z,2.77
2018-05-02T00:20:57.631Z,2.40
2018-05-02T00:23:00.971Z,2.30
2018-05-02T00:25:03.577Z,2.47
2018-05-02T00:27:06.168Z,2.40
2018-05-02T00:29:08.763Z,2.47
2018-05-02T00:31:11.362Z,2.40
2018-05-02T00:33:14.025Z,2.20
2018-05-02T00:35:16.636Z,2.23
2018-05-02T00:37:19.207Z,3.60
2018-05-02T00:39:21.800Z,2.70
2018-05-02T00:43:33.338Z,2.40
2018-05-02T00:45:38.555Z,2.30
2018-05-02T00:47:41.930Z,2.40
2018-05-02T00:49:44.580Z,2.57
2018-05-02T00:51:47.155Z,2.50
2018-05-02T00:53:49.728Z,2.43
2018-05-02T00:55:52.327Z,2.60
2018-05-02T00:57:54.908Z,2.40
2018-05-02T00:59:57.516Z,2.50
2018-05-02T01:02:00.114Z,2.50
2018-05-02T01:04:02.863Z,2.50
2018-05-02T01:06:05.469Z,2.30
2018-05-02T01:08:08.045Z,2.70
2018-05-02T01:10:10.680Z,2.50
2018-05-02T01:12:14.114Z,2.50
2018-05-02T01:14:16.724Z,2.47
2018-05-02T01:16:19.297Z,2.20
2018-05-02T01:18:22.649Z,2.70
2018-05-02T01:20:25.255Z,2.70
2018-05-02T01:22:27.851Z,3.10
2018-05-02T01:24:31.224Z,2.93
2018-05-02T01:26:33.810Z,3.00
2018-05-02T01:28:37.175Z,2.50
2018-05-02T01:30:39.774Z,2.50
2018-05-02T01:32:43.219Z,2.60
2018-05-02T01:34:45.823Z,2.50
2018-05-02T01:36:48.413Z,2.50
2018-05-02T01:38:51.027Z,2.53
2018-05-02T01:40:53.631Z,3.33
2018-05-02T01:42:56.220Z,2.40
2018-05-02T01:44:58.819Z,2.30
2018-05-02T01:47:02.203Z,2.67
2018-05-02T01:49:16.515Z,2.47
2018-05-02T01:51:19.140Z,2.57
2018-05-02T01:53:22.548Z,2.57
2018-05-02T01:55:25.159Z,2.50
2018-05-02T01:57:27.756Z,2.50
2018-05-02T01:59:31.164Z,2.40
2018-05-02T02:01:33.754Z,2.20
2018-05-02T02:03:37.095Z,2.30
2018-05-02T02:05:39.708Z,2.57
2018-05-02T02:07:43.052Z,2.50
2018-05-02T02:09:45.635Z,2.40
2018-05-02T02:11:48.237Z,2.37
2018-05-02T02:13:50.823Z,2.47
2018-05-02T02:15:54.200Z,2.30
2018-05-02T02:17:56.778Z,2.33
2018-05-02T02:19:59.387Z,2.17
2018-05-02T02:22:02.015Z,2.43
2018-05-02T02:24:04.595Z,2.43
2018-05-02T02:26:07.200Z,2.17
2018-05-02T02:28:10.573Z,2.70
2018-05-02T02:30:13.152Z,2.53
2018-05-02T02:32:16.570Z,5.60
2018-05-02T02:34:19.152Z,6.73
2018-05-02T02:36:21.753Z,8.47
2018-05-02T02:38:24.471Z,10.03
2018-05-02T02:40:27.833Z,10.60
2018-05-02T02:42:30.445Z,9.37
2018-05-02T02:44:33.804Z,6.63
2018-05-02T02:46:36.408Z,5.83
2018-05-02T02:48:39.764Z,4.63
2018-05-02T02:50:42.375Z,4.13
2018-05-02T02:52:45.736Z,3.03
2018-05-02T02:54:48.345Z,2.63
2018-05-02T02:56:51.728Z,3.10
2018-05-02T02:58:55.079Z,3.00
2018-05-02T03:00:57.679Z,2.50
2018-05-02T03:03:00.380Z,2.63
2018-05-02T03:05:03.740Z,2.60
2018-05-02T03:07:06.350Z,2.60
2018-05-02T03:09:09.731Z,2.40
2018-05-02T03:11:12.402Z,2.53
2018-05-02T03:13:15.760Z,2.57
2018-05-02T03:15:18.358Z,2.33
2018-05-02T03:17:20.964Z,2.47
2018-05-02T03:19:23.543Z,2.30
2018-05-02T03:21:26.144Z,2.33
2018-05-02T03:23:28.740Z,2.30
2018-05-02T03:27:40.380Z,2.70
2018-05-02T03:29:43.737Z,2.60
2018-05-02T03:31:46.423Z,2.40
2018-05-02T03:33:49.280Z,2.80
2018-05-02T03:35:52.002Z,2.70
2018-05-02T03:37:55.341Z,2.40
2018-05-02T03:39:57.917Z,2.47
2018-05-02T03:42:00.588Z,2.43
2018-05-02T03:44:03.184Z,2.63
2018-05-02T03:46:05.779Z,2.37
2018-05-02T03:48:09.123Z,2.70
2018-05-02T03:50:11.731Z,2.70
2018-05-02T03:52:14.331Z,2.87
2018-05-02T03:54:17.742Z,2.60
2018-05-02T03:56:20.375Z,2.20
2018-05-02T03:58:22.959Z,2.40
2018-05-02T04:00:37.396Z,2.20
2018-05-02T04:02:51.785Z,2.60
2018-05-02T04:05:06.135Z,2.20
2018-05-02T04:07:15.601Z,2.20
2018-05-02T04:09:18.257Z,2.10
2018-05-02T04:11:20.823Z,2.70
2018-05-02T04:13:23.422Z,2.40
2018-05-02T04:15:26.020Z,2.50
2018-05-02T04:17:28.620Z,2.90
2018-05-02T04:19:31.220Z,2.80
2018-05-02T04:21:33.812Z,2.47
2018-05-02T04:23:36.432Z,2.60
2018-05-02T04:25:39.064Z,2.43
2018-05-02T04:27:41.683Z,2.40
2018-05-02T04:29:44.269Z,2.40
2018-05-02T04:31:47.681Z,2.20
2018-05-02T04:33:50.259Z,2.27
2018-05-02T04:35:52.849Z,2.37
2018-05-02T04:37:55.508Z,2.17
2018-05-02T04:39:58.092Z,2.10
2018-05-02T04:42:00.703Z,2.43
2018-05-02T04:44:03.300Z,2.43
2018-05-02T04:46:06.665Z,2.20
2018-05-02T04:48:09.284Z,2.50
2018-05-02T04:50:12.646Z,2.30
2018-05-02T04:52:15.287Z,2.40
2018-05-02T04:54:17.867Z,2.20
2018-05-02T04:56:20.458Z,2.40
2018-05-02T04:58:23.064Z,2.13
2018-05-02T05:00:26.413Z,1.90
2018-05-02T05:02:29.029Z,2.43
2018-05-02T05:04:32.445Z,2.40
2018-05-02T05:06:35.032Z,2.10
2018-05-02T05:08:37.676Z,2.10
2018-05-02T05:10:41.045Z,2.20
2018-05-02T05:12:43.645Z,2.30
2018-05-02T05:14:46.991Z,2.53
2018-05-02T05:16:49.573Z,2.07
2018-05-02T05:18:52.179Z,1.80
2018-05-02T05:20:55.579Z,2.10
2018-05-02T05:22:58.952Z,1.97
2018-05-02T05:25:01.548Z,2.10
2018-05-02T05:27:04.927Z,2.33
2018-05-02T05:29:08.310Z,2.17
2018-05-02T05:31:10.903Z,2.23
2018-05-02T05:33:14.324Z,2.20
2018-05-02T05:35:16.984Z,2.43
2018-05-02T05:37:19.721Z,2.40
2018-05-02T05:39:22.342Z,2.40
2018-05-02T05:41:24.916Z,2.40
2018-05-02T05:43:27.518Z,2.70
2018-05-02T05:45:30.141Z,2.87
2018-05-02T05:47:33.496Z,2.33
2018-05-02T05:49:36.100Z,2.80
2018-05-02T05:51:38.714Z,2.67
2018-05-02T05:53:41.319Z,2.20
2018-05-02T05:55:43.913Z,2.87
2018-05-02T05:57:46.539Z,2.77
2018-05-02T05:59:50.096Z,2.57
2018-05-02T06:01:52.678Z,2.47
2018-05-02T06:03:56.068Z,2.37
2018-05-02T06:05:59.428Z,2.57
2018-05-02T06:08:02.028Z,2.73
2018-05-02T06:10:04.606Z,2.80
2018-05-02T06:12:07.992Z,2.50
2018-05-02T06:14:10.612Z,2.30
2018-05-02T06:16:13.189Z,2.37
2018-05-02T06:18:15.800Z,2.10
2018-05-02T06:20:18.456Z,2.20
2018-05-02T06:22:21.047Z,2.27
2018-05-02T06:24:23.774Z,2.10
2018-05-02T06:26:26.375Z,2.27
2018-05-02T06:28:29.008Z,2.20
2018-05-02T06:30:32.376Z,2.23
2018-05-02T06:32:34.959Z,2.00
2018-05-02T06:34:37.572Z,2.07
2018-05-02T06:36:40.143Z,2.27
2018-05-02T06:38:42.747Z,2.50
2018-05-02T06:40:45.341Z,2.17
2018-05-02T06:42:48.166Z,2.00
2018-05-02T06:44:50.767Z,2.63
2018-05-02T06:46:53.349Z,2.57
2018-05-02T06:48:55.948Z,2.30
2018-05-02T06:50:58.651Z,2.50
2018-05-02T06:53:02.006Z,2.50
2018-05-02T06:55:04.621Z,2.23
2018-05-02T06:57:07.984Z,2.10
2018-05-02T06:59:10.600Z,2.73
2018-05-02T07:01:13.188Z,2.97
2018-05-02T07:03:15.763Z,2.50
2018-05-02T07:05:18.364Z,2.70
2018-05-02T07:07:20.985Z,2.90
2018-05-02T07:09:24.356Z,2.80
2018-05-02T07:11:26.940Z,2.67
2018-05-02T07:13:30.462Z,2.77
2018-05-02T07:15:33.040Z,2.93
2018-05-02T07:17:35.627Z,2.90
2018-05-02T07:19:38.236Z,2.83
2018-05-02T07:21:40.828Z,2.90
2018-05-02T07:23:44.240Z,2.67
2018-05-02T07:25:46.848Z,2.07
2018-05-02T07:27:49.468Z,2.80
2018-05-02T07:29:52.084Z,3.07
2018-05-02T07:31:54.679Z,2.90
2018-05-02T07:33:57.403Z,2.40
2018-05-02T07:36:00.755Z,2.80
2018-05-02T07:38:03.339Z,2.47
2018-05-02T07:40:06.032Z,2.83
2018-05-02T07:42:08.704Z,2.43
2018-05-02T07:44:11.255Z,2.43
2018-05-02T07:46:13.860Z,2.77
2018-05-02T07:48:17.199Z,2.53
2018-05-02T07:50:19.796Z,2.67
2018-05-02T07:52:22.377Z,2.23
2018-05-02T07:54:26.007Z,2.63
2018-05-02T07:56:29.418Z,2.30
2018-05-02T07:58:31.961Z,2.70
2018-05-02T08:00:34.619Z,2.40
2018-05-02T08:02:37.271Z,2.60
2018-05-02T08:04:39.887Z,1.90
2018-05-02T08:06:42.471Z,1.90
2018-05-02T08:08:45.821Z,1.90
2018-05-02T08:10:48.461Z,1.90
2018-05-02T08:12:51.039Z,1.70
2018-05-02T08:14:53.641Z,2.17
2018-05-02T08:16:56.236Z,1.73
2018-05-02T08:18:58.829Z,1.70
2018-05-02T08:21:02.191Z,1.90
2018-05-02T08:23:04.783Z,1.80
2018-05-02T08:25:08.159Z,2.17
2018-05-02T08:27:10.768Z,2.00
2018-05-02T08:29:14.127Z,1.83
2018-05-02T08:31:16.731Z,1.67
2018-05-02T08:33:20.079Z,1.70
2018-05-02T08:35:22.721Z,1.60
2018-05-02T08:37:25.323Z,1.20
2018-05-02T08:39:27.927Z,1.40
2018-05-02T08:41:30.532Z,9.87
2018-05-02T08:43:33.907Z,8.20
2018-05-02T08:45:37.327Z,8.23
2018-05-02T08:47:39.915Z,1.57
2018-05-02T08:49:42.542Z,1.33
2018-05-02T08:51:45.165Z,9.10
2018-05-02T08:53:47.760Z,9.03
2018-05-02T08:55:50.375Z,5.13
2018-05-02T08:57:53.817Z,1.80
2018-05-02T08:59:56.419Z,2.33
2018-05-02T09:01:59.044Z,1.70
2018-05-02T09:04:01.628Z,1.90
2018-05-02T09:06:04.231Z,1.63
2018-05-02T09:08:06.878Z,2.07
2018-05-02T09:10:09.454Z,1.63
2018-05-02T09:12:12.057Z,1.80
2018-05-02T09:14:14.689Z,1.60
2018-05-02T09:16:17.279Z,1.80
2018-05-02T09:18:19.856Z,1.87
2018-05-02T09:20:22.487Z,1.70
2018-05-02T09:22:25.860Z,2.10
2018-05-02T09:24:28.451Z,1.90
2018-05-02T09:26:31.053Z,1.80
2018-05-02T09:28:33.639Z,2.00
2018-05-02T09:30:36.243Z,1.93
2018-05-02T09:32:38.824Z,1.70
2018-05-02T09:34:41.415Z,2.00
2018-05-02T09:36:44.126Z,1.90
2018-05-02T09:38:46.733Z,2.13
2018-05-02T09:40:49.343Z,1.60
2018-05-02T09:42:51.941Z,1.97
2018-05-02T09:44:54.512Z,2.00
2018-05-02T09:46:57.160Z,2.00
2018-05-02T09:48:59.748Z,2.00
2018-05-02T09:51:03.126Z,2.00
2018-05-02T09:53:05.712Z,2.00
2018-05-02T09:55:09.080Z,2.00
2018-05-02T09:57:11.747Z,2.33
2018-05-02T09:59:14.328Z,2.07
2018-05-02T10:01:16.949Z,2.10
2018-05-02T10:03:19.571Z,1.73
2018-05-02T10:05:22.178Z,2.30
2018-05-02T10:07:25.539Z,1.90
2018-05-02T10:09:28.261Z,2.13
2018-05-02T10:11:31.643Z,1.90
2018-05-02T10:13:35.017Z,2.10
2018-05-02T10:15:37.623Z,1.87
2018-05-02T10:17:40.257Z,1.70
2018-05-02T10:19:42.847Z,2.13
2018-05-02T10:21:46.227Z,1.83
2018-05-02T10:23:48.823Z,2.30
2018-05-02T10:25:52.206Z,1.77
2018-05-02T10:27:54.809Z,2.00
2018-05-02T10:29:57.392Z,1.80
2018-05-02T10:32:00.014Z,2.03
2018-05-02T10:34:02.610Z,1.73
2018-05-02T10:36:05.991Z,2.20
2018-05-02T10:38:08.647Z,2.20
2018-05-02T10:40:12.030Z,2.60
2018-05-02T10:42:14.640Z,2.40
2018-05-02T10:44:17.216Z,2.00
2018-05-02T10:46:19.805Z,2.03
2018-05-02T10:48:22.427Z,2.10
2018-05-02T10:50:25.039Z,1.67
2018-05-02T10:52:27.683Z,1.80
2018-05-02T10:54:30.275Z,1.90
2018-05-02T10:56:32.869Z,2.13
2018-05-02T10:58:36.304Z,1.73
2018-05-02T11:00:38.883Z,2.20
2018-05-02T11:02:41.540Z,2.13
2018-05-02T11:04:44.127Z,2.10
2018-05-02T11:06:46.739Z,2.30
2018-05-02T11:08:49.343Z,2.17
2018-05-02T11:10:52.748Z,2.20
2018-05-02T11:12:55.376Z,2.20
2018-05-02T11:14:57.968Z,2.23
2018-05-02T11:17:01.340Z,2.13
2018-05-02T11:19:03.955Z,2.40
2018-05-02T11:21:07.315Z,1.90
2018-05-02T11:23:09.925Z,2.10
2018-05-02T11:25:12.520Z,2.47
2018-05-02T11:27:15.143Z,2.97
2018-05-02T11:29:17.760Z,2.40
2018-05-02T11:31:20.353Z,2.60
2018-05-02T11:33:23.759Z,2.47
2018-05-02T11:35:26.344Z,2.30
2018-05-02T11:37:28.918Z,2.40
2018-05-02T11:39:31.577Z,2.47
2018-05-02T11:41:34.940Z,2.77
2018-05-02T11:43:37.571Z,2.57
2018-05-02T11:45:40.193Z,2.70
2018-05-02T11:47:42.788Z,2.30
2018-05-02T11:49:45.392Z,2.57
2018-05-02T11:51:47.986Z,2.40
2018-05-02T11:53:51.422Z,2.37
2018-05-02T11:55:54.100Z,2.87
2018-05-02T11:57:56.687Z,2.83
2018-05-02T11:59:59.307Z,2.83
2018-05-02T12:02:02.657Z,2.93
2018-05-02T12:04:06.076Z,2.60
2018-05-02T12:06:08.655Z,2.90
2018-05-02T12:08:12.028Z,2.50
2018-05-02T12:10:14.703Z,2.67
2018-05-02T12:12:17.301Z,2.50
2018-05-02T12:14:19.909Z,2.50
2018-05-02T12:16:22.500Z,2.70
2018-05-02T12:18:25.115Z,2.70
2018-05-02T12:20:27.704Z,2.90
2018-05-02T12:22:31.062Z,3.10
2018-05-02T12:24:33.906Z,2.90
2018-05-02T12:26:36.500Z,2.80
2018-05-02T12:28:39.113Z,2.90
2018-05-02T12:30:41.713Z,3.37
2018-05-02T12:32:44.314Z,2.70
2018-05-02T12:34:46.940Z,2.90
2018-05-02T12:36:49.531Z,3.20
2018-05-02T12:38:52.899Z,2.80
2018-05-02T12:40:55.560Z,2.80
2018-05-02T12:42:58.165Z,2.50
2018-05-02T12:45:01.565Z,2.70
2018-05-02T12:47:04.931Z,2.90
2018-05-02T12:49:07.583Z,2.87
2018-05-02T12:51:10.171Z,2.80
2018-05-02T12:53:12.771Z,2.70
2018-05-02T12:55:16.140Z,2.70
2018-05-02T12:57:18.745Z,2.60
2018-05-02T12:59:22.112Z,3.03
2018-05-02T13:01:24.712Z,3.30
2018-05-02T13:03:28.063Z,3.03
2018-05-02T13:05:30.720Z,2.87
2018-05-02T13:07:33.311Z,3.10
2018-05-02T13:09:35.942Z,2.80
2018-05-02T13:11:38.525Z,2.97
2018-05-02T13:13:41.120Z,2.43
2018-05-02T13:15:43.784Z,2.90
2018-05-02T13:17:47.092Z,2.67
2018-05-02T13:19:49.834Z,3.80
2018-05-02T13:21:52.427Z,2.93
2018-05-02T13:23:55.015Z,2.70
2018-05-02T13:25:57.644Z,2.70
2018-05-02T13:28:01.043Z,2.27
2018-05-02T13:30:03.636Z,2.50
2018-05-02T13:32:06.248Z,2.67
2018-05-02T13:34:08.840Z,2.60
2018-05-02T13:36:11.467Z,2.57
2018-05-02T13:38:14.073Z,2.27
2018-05-02T13:40:16.662Z,2.57
2018-05-02T13:42:19.236Z,2.20
2018-05-02T13:44:21.824Z,2.80
2018-05-02T13:46:25.224Z,3.07
2018-05-02T13:48:28.574Z,2.70
2018-05-02T13:50:31.176Z,2.70
2018-05-02T13:52:34.523Z,2.50
2018-05-02T13:54:37.108Z,3.00
2018-05-02T13:56:39.739Z,2.20
2018-05-02T13:58:42.489Z,2.77
2018-05-02T14:00:45.103Z,2.77
2018-05-02T14:02:47.688Z,2.70
2018-05-02T14:04:50.279Z,2.93
2018-05-02T14:06:52.936Z,2.60
2018-05-02T14:08:55.539Z,2.50
2018-05-02T14:10:58.244Z,2.53
2018-05-02T14:13:00.814Z,2.73
2018-05-02T14:15:04.181Z,2.50
2018-05-02T14:17:06.864Z,1.93
2018-05-02T14:19:09.516Z,3.20
2018-05-02T14:21:12.865Z,2.60
2018-05-02T14:23:16.211Z,2.47
2018-05-02T14:25:18.854Z,2.60
2018-05-02T14:27:21.504Z,2.47
2018-05-02T14:29:24.862Z,2.80
2018-05-02T14:31:27.471Z,2.50
2018-05-02T14:33:30.839Z,2.70
2018-05-02T14:35:33.542Z,2.73
2018-05-02T14:37:36.897Z,2.63
2018-05-02T14:39:39.496Z,2.80
2018-05-02T14:41:42.883Z,2.70
2018-05-02T14:43:45.475Z,2.97
2018-05-02T14:45:48.855Z,3.00
2018-05-02T14:47:52.204Z,2.80
2018-05-02T14:49:55.585Z,3.07
2018-05-02T14:51:58.183Z,2.80
2018-05-02T14:54:00.775Z,2.70
2018-05-02T14:56:03.392Z,3.10
2018-05-02T14:58:05.963Z,2.73
2018-05-02T15:00:08.551Z,2.90
2018-05-02T15:02:11.151Z,2.80
2018-05-02T15:04:13.760Z,3.50
2018-05-02T15:06:17.140Z,3.20
2018-05-02T15:08:19.782Z,3.30
2018-05-02T15:10:22.331Z,3.13
2018-05-02T15:12:24.941Z,3.30
2018-05-02T15:14:27.543Z,3.93
2018-05-02T15:16:31.008Z,3.07
2018-05-02T15:18:33.588Z,3.20
2018-05-02T15:20:36.172Z,3.77
2018-05-02T15:22:40.308Z,3.90
2018-05-02T15:24:43.693Z,3.50
2018-05-02T15:26:46.274Z,3.13
2018-05-02T15:28:49.619Z,3.30
2018-05-02T15:30:52.200Z,2.90
2018-05-02T15:32:54.813Z,3.77
2018-05-02T15:34:58.179Z,3.30
2018-05-02T15:37:00.785Z,3.37
2018-05-02T15:39:04.229Z,3.53
2018-05-02T15:41:06.799Z,3.63
2018-05-02T15:43:09.403Z,3.40
2018-05-02T15:45:11.992Z,4.03
2018-05-02T15:47:15.371Z,3.83
2018-05-02T15:49:18.057Z,4.17
2018-05-02T15:51:20.586Z,4.13
2018-05-02T15:53:23.191Z,4.03
2018-05-02T15:55:25.795Z,4.37
2018-05-02T15:57:28.413Z,4.20
2018-05-02T15:59:31.767Z,4.07
2018-05-02T16:01:35.140Z,3.93
2018-05-02T16:03:37.763Z,4.10
2018-05-02T16:05:40.343Z,4.07
2018-05-02T16:07:42.943Z,3.70
2018-05-02T16:09:45.520Z,4.27
2018-05-02T16:11:49.108Z,4.67
2018-05-02T16:13:51.740Z,4.27
2018-05-02T16:15:54.360Z,3.90
2018-05-02T16:17:56.991Z,4.20
2018-05-02T16:19:59.637Z,3.93
2018-05-02T16:22:03.028Z,4.00
2018-05-02T16:24:06.403Z,4.07
2018-05-02T16:26:08.991Z,4.30
2018-05-02T16:28:12.352Z,4.10
2018-05-02T16:30:14.952Z,4.63
2018-05-02T16:32:17.559Z,3.93
2018-05-02T16:34:20.140Z,3.70
2018-05-02T16:36:22.731Z,4.23
2018-05-02T16:38:25.405Z,3.97
2018-05-02T16:40:27.998Z,4.17
2018-05-02T16:42:30.659Z,4.07
2018-05-02T16:44:33.253Z,4.20
2018-05-02T16:46:35.843Z,3.80
2018-05-02T16:48:38.436Z,4.00
2018-05-02T16:50:41.784Z,3.97
2018-05-02T16:52:45.388Z,4.43
2018-05-02T16:54:47.995Z,4.37
2018-05-02T16:56:51.364Z,3.97
2018-05-02T16:58:53.978Z,4.40
2018-05-02T17:00:56.563Z,5.00
2018-05-02T17:02:59.171Z,4.67
2018-05-02T17:05:01.767Z,5.07
2018-05-02T17:07:04.376Z,4.70
2018-05-02T17:09:07.034Z,5.50
2018-05-02T17:11:10.444Z,4.60
2018-05-02T17:13:13.786Z,4.13
2018-05-02T17:15:16.367Z,3.90
2018-05-02T17:17:18.978Z,4.10
2018-05-02T17:19:22.366Z,3.97
2018-05-02T17:21:25.723Z,4.10
2018-05-02T17:23:28.343Z,3.87
2018-05-02T17:25:30.923Z,4.50
2018-05-02T17:27:33.508Z,4.30
2018-05-02T17:29:36.116Z,4.67
2018-05-02T17:31:38.716Z,3.63
2018-05-02T17:33:41.316Z,4.03
2018-05-02T17:35:44.107Z,4.20
2018-05-02T17:37:46.700Z,3.97
2018-05-02T17:39:49.352Z,4.10
2018-05-02T17:41:51.983Z,3.67
2018-05-02T17:43:54.687Z,4.40
2018-05-02T17:45:57.292Z,3.13
2018-05-02T17:47:59.888Z,3.87
2018-05-02T17:50:02.508Z,3.77
2018-05-02T17:52:05.874Z,3.40
2018-05-02T17:54:08.487Z,3.47
2018-05-02T17:56:11.080Z,3.40
2018-05-02T17:58:13.684Z,3.67
2018-05-02T18:00:17.594Z,3.97
2018-05-02T18:02:20.241Z,3.77
2018-05-02T18:04:25.674Z,3.50
2018-05-02T18:06:28.339Z,3.20
2018-05-02T18:08:30.972Z,3.17
2018-05-02T18:10:33.620Z,3.90
2018-05-02T18:12:36.203Z,3.20
2018-05-02T18:14:38.835Z,3.50
2018-05-02T18:16:41.416Z,3.10
2018-05-02T18:18:44.024Z,3.60
2018-05-02T18:20:46.658Z,3.70
2018-05-02T18:22:49.279Z,3.40
2018-05-02T18:24:51.911Z,3.00
2018-05-02T18:26:54.519Z,3.00
2018-05-02T18:28:57.105Z,3.30
2018-05-02T18:30:59.720Z,3.47
2018-05-02T18:33:02.343Z,3.53
2018-05-02T18:35:05.069Z,3.43
2018-05-02T18:37:07.671Z,3.10
2018-05-02T18:39:10.353Z,3.90
2018-05-02T18:41:12.976Z,3.20
2018-05-02T18:43:15.575Z,3.40
2018-05-02T18:45:18.220Z,2.87
2018-05-02T18:47:20.807Z,3.77
2018-05-02T18:49:24.185Z,3.80
2018-05-02T18:51:26.821Z,3.93
2018-05-02T18:53:30.589Z,3.57
2018-05-02T18:55:33.216Z,3.93
2018-05-02T18:57:35.880Z,4.40
2018-05-02T18:59:38.557Z,3.90
2018-05-02T19:01:41.260Z,3.33
2018-05-02T19:03:43.860Z,3.53
2018-05-02T19:05:47.223Z,3.90
2018-05-02T19:07:49.817Z,3.90
2018-05-02T19:09:53.476Z,4.20
2018-05-02T19:11:56.104Z,3.97
2018-05-02T19:14:01.372Z,3.60
2018-05-02T19:16:04.025Z,3.80
2018-05-02T19:18:12.208Z,3.53
2018-05-02T19:20:21.079Z,3.83
2018-05-02T19:22:24.493Z,4.07
2018-05-02T19:24:32.856Z,4.10
2018-05-02T19:26:36.436Z,4.27
2018-05-02T19:28:39.782Z,4.17
2018-05-02T19:30:42.392Z,4.10
2018-05-02T19:32:51.347Z,4.70
2018-05-02T19:34:53.956Z,3.90
2018-05-02T19:36:56.733Z,3.60
2018-05-02T19:38:59.340Z,4.10
2018-05-02T19:41:07.519Z,4.10
2018-05-02T19:43:15.626Z,3.77
2018-05-02T19:45:18.223Z,4.37
2018-05-02T19:47:21.715Z,4.00
2018-05-02T19:49:24.315Z,4.17
2018-05-02T19:51:32.534Z,4.10
2018-05-02T19:53:35.148Z,3.97
2018-05-02T19:55:37.757Z,3.80
2018-05-02T19:57:41.123Z,3.70
2018-05-02T19:59:43.753Z,4.23
2018-05-02T20:01:51.927Z,3.70
2018-05-02T20:03:55.307Z,3.90
2018-05-02T20:05:57.952Z,3.73
2018-05-02T20:08:00.572Z,4.10
2018-05-02T20:10:09.458Z,3.90
2018-05-02T20:12:17.691Z,4.07
2018-05-02T20:14:21.064Z,4.33
2018-05-02T20:16:23.660Z,4.03
2018-05-02T20:18:27.028Z,4.30
2018-05-02T20:20:29.684Z,4.13
2018-05-02T20:22:33.055Z,4.10
2018-05-02T20:24:35.661Z,4.23
2018-05-02T20:26:38.264Z,4.47
2018-05-02T20:28:40.840Z,4.47
2018-05-02T20:30:44.186Z,4.23
2018-05-02T20:32:46.820Z,4.40
2018-05-02T20:34:50.183Z,4.30
2018-05-02T20:36:52.843Z,5.10
2018-05-02T20:38:55.443Z,4.77
2018-05-02T20:40:58.044Z,4.20
2018-05-02T20:43:00.782Z,4.47
2018-05-02T20:45:03.365Z,4.37
2018-05-02T20:47:06.039Z,4.33
2018-05-02T20:49:08.639Z,4.53
2018-05-02T20:51:11.315Z,4.13
2018-05-02T20:53:14.678Z,4.27
2018-05-02T20:55:17.355Z,4.27
2018-05-02T20:57:19.930Z,4.43
2018-05-02T20:59:22.629Z,4.33
2018-05-02T21:01:25.999Z,4.20
2018-05-02T21:03:29.412Z,4.30
2018-05-02T21:05:32.767Z,4.03
2018-05-02T21:07:35.384Z,4.00
2018-05-02T21:09:38.759Z,4.17
2018-05-02T21:11:42.153Z,3.90
2018-05-02T21:13:44.756Z,4.00
2018-05-02T21:15:48.374Z,4.00
2018-05-02T21:17:50.986Z,4.20
2018-05-02T21:19:53.584Z,3.87
2018-05-02T21:21:56.964Z,4.20
2018-05-02T21:23:59.570Z,4.10
2018-05-02T21:26:02.213Z,3.43
2018-05-02T21:28:04.825Z,3.47
2018-05-02T21:30:07.461Z,3.60
2018-05-02T21:32:10.847Z,3.30
2018-05-02T21:34:13.423Z,3.40
2018-05-02T21:36:16.030Z,3.40
2018-05-02T21:38:19.776Z,3.40
2018-05-02T21:40:22.437Z,2.83
2018-05-02T21:42:25.062Z,3.07
2018-05-02T21:44:28.422Z,3.17
2018-05-02T21:46:31.035Z,3.03
2018-05-02T21:48:34.414Z,3.13
2018-05-02T21:50:38.811Z,2.87
2018-05-02T21:52:41.424Z,3.00
2018-05-02T21:54:44.764Z,3.33
2018-05-02T21:56:47.481Z,3.20
2018-05-02T21:58:50.877Z,2.97
2018-05-02T22:00:54.248Z,2.73
2018-05-02T22:02:59.667Z,2.83
2018-05-02T22:05:02.257Z,3.40
2018-05-02T22:07:04.912Z,2.90
2018-05-02T22:09:07.534Z,2.87
2018-05-02T22:11:10.927Z,2.73
2018-05-02T22:13:14.482Z,3.23
2018-05-02T22:15:17.093Z,2.83
2018-05-02T22:17:20.459Z,2.90
2018-05-02T22:19:23.080Z,2.70
2018-05-02T22:21:25.663Z,2.70
2018-05-02T22:23:28.281Z,2.67
2018-05-02T22:25:32.519Z,2.83
2018-05-02T22:27:35.896Z,3.07
2018-05-02T22:29:38.565Z,2.90
2018-05-02T22:31:41.240Z,2.53
2018-05-02T22:33:43.858Z,2.83
2018-05-02T22:35:46.459Z,2.50
2018-05-02T22:37:51.177Z,2.57
2018-05-02T22:39:53.764Z,2.37
2018-05-02T22:41:56.391Z,2.60
2018-05-02T22:43:59.763Z,2.37
2018-05-02T22:46:02.582Z,2.47
2018-05-02T22:48:05.177Z,2.60
2018-05-02T22:50:07.775Z,2.40
2018-05-02T22:52:10.363Z,2.30
2018-05-02T22:54:13.143Z,2.23
2018-05-02T22:56:15.754Z,2.33
2018-05-02T22:58:18.372Z,2.23
2018-05-02T23:00:20.974Z,2.07
2018-05-02T23:02:23.666Z,2.33
2018-05-02T23:04:27.050Z,2.43
2018-05-02T23:06:30.460Z,2.23
2018-05-02T23:08:33.839Z,2.00
2018-05-02T23:10:37.236Z,2.40
2018-05-02T23:12:40.594Z,2.23
2018-05-02T23:14:43.310Z,2.10
2018-05-02T23:16:46.773Z,2.27
2018-05-02T23:18:49.389Z,2.40
2018-05-02T23:20:52.000Z,2.20
2018-05-02T23:22:54.595Z,1.93
2018-05-02T23:24:57.990Z,2.20
2018-05-02T23:27:00.583Z,2.17
2018-05-02T23:29:04.000Z,2.17
2018-05-02T23:31:06.660Z,2.27
2018-05-02T23:33:10.038Z,2.10
2018-05-02T23:35:13.795Z,2.10
2018-05-02T23:37:16.399Z,2.30
2018-05-02T23:39:19.048Z,2.10
2018-05-02T23:41:22.420Z,2.03
2018-05-02T23:43:25.059Z,2.00
2018-05-02T23:45:28.427Z,2.17
2018-05-02T23:47:32.566Z,2.00
2018-05-02T23:49:35.988Z,1.80
2018-05-02T23:51:38.573Z,2.10
2018-05-02T23:53:41.188Z,2.00
2018-05-02T23:55:43.773Z,2.30
2018-05-02T23:57:46.383Z,2.07
2018-05-02T23:59:49.418Z,2.13
